Time;durP1;ratioP1;P1;durP2;ratioP2;P2;SDS_P1;SDS_P2;PMS_P1;PMS_P2;Temp;Humidity;BMP_temperature;BMP_pressure;BME280_temperature;BME280_humidity;BME280_pressure;Samples;Min_cycle;Max_cycle;Signal;HPM_P1;HPM_P2
2022/09/29 00:00:38;;;;;;;9.07;4.97;;;5.50;99.90;;;;;;5069519;28;20562;-57
2022/09/29 00:03:05;;;;;;;8.60;5.53;;;5.60;99.90;;;;;;5068560;28;20060;-57
2022/09/29 00:05:31;;;;;;;14.23;5.70;;;5.60;99.90;;;;;;5069627;28;20036;-56
2022/09/29 00:07:57;;;;;;;11.15;5.25;;;5.50;99.90;;;;;;5069351;28;20970;-56
2022/09/29 00:10:22;;;;;;;6.53;3.90;;;5.50;99.90;;;;;;5069293;28;20368;-57
2022/09/29 00:12:48;;;;;;;7.65;3.90;;;5.40;99.90;;;;;;5067627;28;20040;-57
2022/09/29 00:15:14;;;;;;;17.70;4.30;;;5.30;99.90;;;;;;5068605;28;20043;-57
2022/09/29 00:17:40;;;;;;;7.35;4.00;;;;;;;;;;5069164;28;20067;-56
2022/09/29 00:20:07;;;;;;;11.50;3.50;;;5.30;99.90;;;;;;5069474;28;20058;-57
2022/09/29 00:22:33;;;;;;;42.53;4.80;;;;;;;;;;5067143;28;20051;-57
2022/09/29 00:24:59;;;;;;;16.55;4.15;;;5.00;99.90;;;;;;5068205;28;20374;-57
2022/09/29 00:27:25;;;;;;;6.07;3.15;;;5.40;99.90;;;;;;5070483;28;20047;-57
2022/09/29 00:29:50;;;;;;;7.55;3.42;;;5.20;99.90;;;;;;5070276;28;20289;-56
2022/09/29 00:32:16;;;;;;;14.10;3.95;;;5.20;99.90;;;;;;5070264;28;20050;-57
2022/09/29 00:34:42;;;;;;;8.88;3.42;;;5.10;99.90;;;;;;5070302;28;20050;-57
2022/09/29 00:37:08;;;;;;;7.55;4.07;;;5.10;99.90;;;;;;5069157;28;20075;-57
2022/09/29 00:39:34;;;;;;;11.18;4.00;;;;;;;;;;5068698;28;20123;-57
2022/09/29 00:42:00;;;;;;;15.48;4.50;;;;;;;;;;5071072;28;20043;-57
2022/09/29 00:44:53;;;;;;;159.32;9.55;;;5.30;99.90;;;;;;5073761;28;20051;-56
2022/09/29 00:47:20;;;;;;;66.78;6.05;;;5.10;99.90;;;;;;5072688;28;20051;-57
2022/09/29 00:49:49;;;;;;;22.77;5.25;;;5.30;99.90;;;;;;5073095;28;20079;-57
2022/09/29 00:52:29;;;;;;;24.88;4.47;;;5.20;99.90;;;;;;5076118;28;20052;-57
2022/09/29 00:55:08;;;;;;;44.28;5.47;;;5.20;99.90;;;;;;5073100;28;20075;-57
2022/09/29 00:57:40;;;;;;;41.92;6.18;;;5.20;99.90;;;;;;5073025;28;20066;-57
2022/09/29 01:00:13;;;;;;;39.75;5.63;;;5.10;99.90;;;;;;5072551;28;20040;-57
2022/09/29 01:02:48;;;;;;;105.15;9.50;;;5.10;99.90;;;;;;5055848;28;20046;-57
2022/09/29 01:05:19;;;;;;;30.98;5.82;;;5.20;99.90;;;;;;5068728;28;20431;-57
2022/09/29 01:07:46;;;;;;;22.88;6.18;;;5.10;99.90;;;;;;5071998;28;20523;-57
2022/09/29 01:10:15;;;;;;;29.83;6.72;;;5.10;99.90;;;;;;5072538;28;20046;-57
2022/09/29 01:12:44;;;;;;;32.75;6.72;;;5.10;99.90;;;;;;5073507;28;20040;-57
2022/09/29 01:15:10;;;;;;;24.17;8.38;;;5.20;99.90;;;;;;5072682;28;20465;-57
2022/09/29 01:17:36;;;;;;;31.80;8.02;;;5.20;99.90;;;;;;5070326;28;20105;-57
2022/09/29 01:20:16;;;;;;;26.48;8.45;;;5.00;99.90;;;;;;5070616;28;20051;-56
2022/09/29 01:23:16;;;;;;;24.05;7.65;;;5.30;99.90;;;;;;5070847;28;20040;-57
2022/09/29 01:26:03;;;;;;;43.42;7.22;;;5.40;99.90;;;;;;5071138;28;20032;-57
2022/09/29 01:28:38;;;;;;;9.82;6.00;;;5.10;99.90;;;;;;5073540;28;20036;-57
2022/09/29 01:31:21;;;;;;;13.25;5.70;;;5.30;99.90;;;;;;5071969;28;20044;-57
2022/09/29 01:34:13;;;;;;;9.77;4.95;;;5.10;99.90;;;;;;5073316;28;20138;-56
2022/09/29 01:36:58;;;;;;;60.90;5.25;;;5.00;99.90;;;;;;5072544;28;20058;-57
2022/09/29 01:39:53;;;;;;;16.05;4.00;;;5.10;99.90;;;;;;5070218;28;20118;-57
2022/09/29 01:42:25;;;;;;;23.77;5.70;;;5.10;99.90;;;;;;5072089;28;20047;-56
2022/09/29 01:44:54;;;;;;;;;;;4.90;99.90;;;;;;5073335;28;20036;-57
2022/09/29 01:47:35;;;;;;;16.73;4.18;;;4.80;99.90;;;;;;5072035;28;20447;-56
2022/09/29 01:50:11;;;;;;;20.08;4.85;;;4.90;99.90;;;;;;5072120;28;20110;-56
2022/09/29 01:52:45;;;;;;;103.43;7.30;;;4.70;99.90;;;;;;5072131;28;20413;-57
2022/09/29 01:55:24;;;;;;;84.28;7.65;;;4.80;99.90;;;;;;5073393;28;20086;-57
2022/09/29 01:58:08;;;;;;;70.93;7.55;;;4.80;99.90;;;;;;5070259;28;20793;-56
2022/09/29 02:00:57;;;;;;;196.90;12.50;;;4.90;99.90;;;;;;5072816;28;20127;-56
2022/09/29 02:03:39;;;;;;;76.45;7.85;;;4.90;99.90;;;;;;5072987;28;20036;-57
2022/09/29 02:06:14;;;;;;;106.55;8.18;;;5.00;99.90;;;;;;5070942;28;20060;-57
2022/09/29 02:08:55;;;;;;;48.42;6.80;;;5.00;99.90;;;;;;5070787;28;20036;-57
2022/09/29 02:11:22;;;;;;;148.32;11.10;;;5.00;99.90;;;;;;5072348;28;20275;-56
2022/09/29 02:14:05;;;;;;;89.15;10.27;;;5.00;99.90;;;;;;5072793;28;20539;-57
2022/09/29 02:16:42;;;;;;;59.90;8.18;;;5.10;99.90;;;;;;5070503;28;20872;-57
2022/09/29 02:19:17;;;;;;;62.10;6.82;;;4.90;99.90;;;;;;5071059;28;20463;-57
2022/09/29 02:21:44;;;;;;;38.45;7.13;;;;;;;;;;5072800;28;20447;-56
2022/09/29 02:24:11;;;;;;;32.97;6.22;;;3.20;99.90;;;;;;5070232;28;20048;-57
2022/09/29 02:26:37;;;;;;;45.40;8.00;;;;;;;;;;5069491;28;20050;-57
2022/09/29 02:29:05;;;;;;;64.72;8.25;;;4.70;99.90;;;;;;5070626;28;20036;-57
2022/09/29 02:31:32;;;;;;;46.72;7.35;;;4.70;99.90;;;;;;5072024;28;20040;-57
2022/09/29 02:34:00;;;;;;;32.42;7.28;;;4.60;99.90;;;;;;5071568;28;20039;-57
2022/09/29 02:36:29;;;;;;;32.65;7.75;;;4.80;99.90;;;;;;5070098;28;20086;-57
2022/09/29 02:39:19;;;;;;;25.90;5.45;;;4.50;99.90;;;;;;5070646;28;20074;-57
2022/09/29 02:42:06;;;;;;;31.20;6.03;;;4.70;99.90;;;;;;5070267;28;20074;-57
2022/09/29 02:44:46;;;;;;;33.60;6.65;;;4.50;99.90;;;;;;5070492;28;20154;-57
2022/09/29 02:47:46;;;;;;;28.60;6.35;;;4.70;99.90;;;;;;5070151;28;20071;-57
2022/09/29 02:50:21;;;;;;;31.88;6.68;;;4.80;99.90;;;;;;5069262;28;20051;-56
2022/09/29 02:52:59;;;;;;;38.13;7.25;;;4.60;99.90;;;;;;5071373;28;20763;-56
2022/09/29 02:55:45;;;;;;;59.80;7.72;;;4.70;99.90;;;;;;5071232;28;20496;-57
2022/09/29 02:58:43;;;;;;;21.58;7.97;;;4.50;99.90;;;;;;5068860;28;20069;-55
2022/09/29 03:01:09;;;;;;;47.20;9.02;;;4.40;99.90;;;;;;5067315;28;20059;-57
2022/09/29 03:03:36;;;;;;;60.58;8.73;;;;;;;;;;5069308;28;20680;-57
2022/09/29 03:06:02;;;;;;;62.55;9.43;;;;;;;;;;5068134;28;20499;-56
2022/09/29 03:08:28;;;;;;;42.28;8.63;;;;;;;;;;5066612;28;20970;-57
2022/09/29 03:10:54;;;;;;;36.83;8.00;;;4.40;99.90;;;;;;5072029;28;20089;-57
2022/09/29 03:13:20;;;;;;;59.42;8.80;;;;;;;;;;5070487;28;20040;-57
2022/09/29 03:15:45;;;;;;;26.02;8.07;;;4.40;99.90;;;;;;5069346;28;20036;-57
2022/09/29 03:18:11;;;;;;;25.30;6.57;;;;;;;;;;5071757;28;20125;-57
2022/09/29 03:20:37;;;;;;;22.90;7.50;;;;;;;;;;5070914;28;20044;-56
2022/09/29 03:23:04;;;;;;;18.50;7.43;;;;;;;;;;5071883;28;20048;-57
2022/09/29 03:25:30;;;;;;;17.58;6.20;;;;;;;;;;5070202;28;20290;-57
2022/09/29 03:27:56;;;;;;;25.42;7.32;;;4.40;99.90;;;;;;5070382;28;20043;-56
2022/09/29 03:30:22;;;;;;;85.28;8.13;;;4.30;99.90;;;;;;5069558;28;20048;-57
2022/09/29 03:32:48;;;;;;;76.47;9.35;;;;;;;;;;5067748;28;20567;-57
2022/09/29 03:35:14;;;;;;;48.83;6.97;;;;;;;;;;5071019;28;20131;-55
2022/09/29 03:37:40;;;;;;;64.07;8.43;;;;;;;;;;5069963;28;20297;-57
2022/09/29 03:40:07;;;;;;;29.92;8.10;;;4.20;99.90;;;;;;5069919;28;20040;-57
2022/09/29 03:42:33;;;;;;;29.38;8.00;;;;;;;;;;5067654;28;20049;-56
2022/09/29 03:44:59;;;;;;;33.08;7.95;;;;;;;;;;5070742;28;20036;-56
2022/09/29 03:47:25;;;;;;;38.72;9.18;;;;;;;;;;5068605;28;20094;-56
2022/09/29 03:49:51;;;;;;;87.70;8.57;;;;;;;;;;5069307;28;20168;-57
2022/09/29 03:52:17;;;;;;;50.50;8.90;;;;;;;;;;5071452;28;20055;-57
2022/09/29 03:54:43;;;;;;;104.72;9.23;;;4.30;99.90;;;;;;5070381;28;20048;-57
2022/09/29 03:57:09;;;;;;;84.53;7.45;;;;;;;;;;5069604;28;20047;-56
2022/09/29 03:59:35;;;;;;;68.93;6.88;;;;;;;;;;5069352;28;20040;-56
2022/09/29 04:02:01;;;;;;;38.83;7.70;;;;;;;;;;5069003;28;20500;-56
2022/09/29 04:04:27;;;;;;;46.90;9.50;;;;;;;;;;5069931;28;20036;-56
2022/09/29 04:06:54;;;;;;;51.40;9.50;;;;;;;;;;5069347;28;20044;-57
2022/09/29 04:09:20;;;;;;;17.55;5.75;;;;;;;;;;5069109;28;20079;-55
2022/09/29 04:11:45;;;;;;;24.48;6.70;;;4.00;99.90;;;;;;5069564;28;20044;-56
2022/09/29 04:14:11;;;;;;;22.38;6.30;;;;;;;;;;5069249;28;20047;-56
2022/09/29 04:16:38;;;;;;;49.05;7.68;;;;;;;;;;5069324;28;20081;-56
2022/09/29 04:19:04;;;;;;;45.83;8.32;;;;;;;;;;5074036;28;21745;-55
2022/09/29 04:21:30;;;;;;;71.55;7.43;;;;;;;;;;5075258;28;20832;-56
2022/09/29 04:23:56;;;;;;;37.28;7.13;;;;;;;;;;5074878;28;20044;-56
2022/09/29 04:26:22;;;;;;;78.35;9.10;;;;;;;;;;5072602;28;20067;-56
2022/09/29 04:28:48;;;;;;;55.83;9.05;;;;;;;;;;5071862;28;20043;-56
2022/09/29 04:31:14;;;;;;;33.10;8.63;;;;;;;;;;5073566;28;20039;-56
2022/09/29 04:33:40;;;;;;;30.58;6.82;;;4.10;99.90;;;;;;5073358;28;20050;-56
2022/09/29 04:36:06;;;;;;;32.20;7.50;;;;;;;;;;5074467;28;20052;-57
2022/09/29 04:38:32;;;;;;;32.80;8.27;;;3.90;99.90;;;;;;5074695;28;20727;-56
2022/09/29 04:40:58;;;;;;;37.05;9.23;;;4.00;99.90;;;;;;5075212;28;20032;-56
2022/09/29 04:43:24;;;;;;;35.60;9.30;;;;;;;;;;5074615;28;20104;-56
2022/09/29 04:45:50;;;;;;;25.13;8.77;;;;;;;;;;5073463;28;20044;-56
2022/09/29 04:48:16;;;;;;;55.10;12.00;;;;;;;;;;5072134;28;20052;-56
2022/09/29 04:50:43;;;;;;;61.47;12.32;;;;;;;;;;5075442;28;20093;-56
2022/09/29 04:53:10;;;;;;;86.65;12.48;;;4.10;99.90;;;;;;5074469;28;20062;-57
2022/09/29 04:55:38;;;;;;;55.45;11.05;;;4.00;99.90;;;;;;5072639;28;20468;-56
2022/09/29 04:58:04;;;;;;;81.35;13.55;;;;;;;;;;5072944;28;20040;-56
2022/09/29 05:00:31;;;;;;;84.72;12.40;;;;;;;;;;5073738;28;20063;-56
2022/09/29 05:02:57;;;;;;;45.05;10.90;;;;;;;;;;5072140;28;20460;-56
2022/09/29 05:05:23;;;;;;;51.10;11.32;;;;;;;;;;5073263;28;20044;-56
2022/09/29 05:07:49;;;;;;;59.15;10.70;;;;;;;;;;5072754;28;20174;-56
2022/09/29 05:10:16;;;;;;;23.23;8.02;;;;;;;;;;5071777;28;20075;-56
2022/09/29 05:12:48;;;;;;;79.88;13.45;;;4.00;99.90;;;;;;5070751;28;20036;-56
2022/09/29 05:15:15;;;;;;;61.25;10.73;;;3.90;99.90;;;;;;5073664;28;20044;-56
2022/09/29 05:17:41;;;;;;;58.20;11.15;;;4.00;99.90;;;;;;5072698;28;20040;-57
2022/09/29 05:20:07;;;;;;;31.80;10.93;;;3.90;99.90;;;;;;5072554;28;20048;-56
2022/09/29 05:22:34;;;;;;;32.83;10.10;;;;;;;;;;5072391;28;20475;-56
2022/09/29 05:25:00;;;;;;;17.95;9.48;;;;;;;;;;5072868;28;20051;-56
2022/09/29 05:27:26;;;;;;;14.88;8.57;;;;;;;;;;5069770;28;20040;-56
2022/09/29 05:29:52;;;;;;;26.83;8.70;;;;;;;;;;5071986;28;20654;-56
2022/09/29 05:32:18;;;;;;;20.17;8.05;;;;;;;;;;5069483;28;20032;-55
2022/09/29 05:34:44;;;;;;;39.85;11.02;;;;;;;;;;5072556;28;20036;-56
2022/09/29 05:37:10;;;;;;;16.52;8.65;;;3.70;99.90;;;;;;5071414;28;21119;-56
2022/09/29 05:39:36;;;;;;;15.57;8.40;;;;;;;;;;5071476;28;20036;-56
2022/09/29 05:42:09;;;;;;;12.30;8.10;;;3.80;99.90;;;;;;5072145;28;20412;-56
2022/09/29 05:44:35;;;;;;;13.48;8.25;;;;;;;;;;5071551;28;20121;-56
2022/09/29 05:47:01;;;;;;;12.68;7.90;;;;;;;;;;5071022;28;20158;-57
2022/09/29 05:49:28;;;;;;;60.40;11.05;;;;;;;;;;5070615;28;20052;-56
2022/09/29 05:51:54;;;;;;;45.80;10.63;;;;;;;;;;5071686;28;20109;-56
2022/09/29 05:54:20;;;;;;;29.38;8.35;;;;;;;;;;5070519;28;20047;-57
2022/09/29 05:56:46;;;;;;;59.67;9.50;;;;;;;;;;5072040;28;20075;-56
2022/09/29 05:59:13;;;;;;;108.15;12.65;;;;;;;;;;5071103;28;20048;-56
2022/09/29 06:01:39;;;;;;;100.78;12.80;;;;;;;;;;5070459;28;20036;-56
2022/09/29 06:04:05;;;;;;;38.03;9.10;;;;;;;;;;5073237;28;20083;-57
2022/09/29 06:06:31;;;;;;;67.85;11.43;;;;;;;;;;5072980;28;20465;-56
2022/09/29 06:08:58;;;;;;;98.68;13.88;;;4.20;99.90;;;;;;5072343;28;20881;-57
2022/09/29 06:11:32;;;;;;;56.65;11.60;;;4.30;99.90;;;;;;5070951;28;20209;-56
2022/09/29 06:14:00;;;;;;;45.90;11.30;;;4.10;99.90;;;;;;5071168;28;20129;-56
2022/09/29 06:16:27;;;;;;;39.28;12.77;;;4.10;99.90;;;;;;5071478;28;20044;-56
2022/09/29 06:18:53;;;;;;;12.50;9.95;;;;;;;;;;5071259;28;20135;-56
2022/09/29 06:21:22;;;;;;;31.23;10.07;;;4.30;99.90;;;;;;5071863;28;20098;-56
2022/09/29 06:23:49;;;;;;;28.35;11.20;;;;;;;;;;5073352;28;20550;-57
2022/09/29 06:26:17;;;;;;;14.68;8.63;;;4.30;99.90;;;;;;5072432;28;20473;-57
2022/09/29 06:28:43;;;;;;;15.38;9.40;;;;;;;;;;5071400;28;20048;-57
2022/09/29 06:31:14;;;;;;;19.90;12.43;;;4.40;99.90;;;;;;5071702;28;20093;-55
2022/09/29 06:33:40;;;;;;;15.30;11.57;;;;;;;;;;5069959;28;20052;-55
2022/09/29 06:38:58;;;;;;;9.90;8.85;;;;;;;;;;5071429;28;20051;-55
2022/09/29 06:41:26;;;;;;;16.63;10.00;;;5.00;99.90;;;;;;5071868;28;20040;-55
2022/09/29 06:43:52;;;;;;;12.82;10.02;;;;;;;;;;5071087;28;20585;-55
2022/09/29 06:46:18;;;;;;;10.30;9.00;;;;;;;;;;5071277;28;20397;-55
2022/09/29 06:48:44;;;;;;;14.55;10.80;;;5.30;99.90;;;;;;5070656;28;20043;-55
2022/09/29 06:51:10;;;;;;;18.17;11.45;;;5.50;99.90;;;;;;5071320;28;20214;-55
2022/09/29 06:53:36;;;;;;;14.90;11.27;;;;;;;;;;5071156;28;20032;-56
2022/09/29 06:56:03;;;;;;;17.42;12.13;;;;;;;;;;5071357;28;20039;-55
2022/09/29 06:58:29;;;;;;;14.50;11.00;;;5.90;99.90;;;;;;5071001;28;20051;-55
2022/09/29 07:00:55;;;;;;;16.88;12.88;;;;;;;;;;5069963;28;20042;-55
2022/09/29 07:03:21;;;;;;;14.50;11.43;;;;;;;;;;5069247;28;20051;-56
2022/09/29 07:05:47;;;;;;;14.77;12.95;;;5.90;99.90;;;;;;5070589;28;20063;-55
2022/09/29 07:08:12;;;;;;;15.38;12.88;;;6.20;99.90;;;;;;5070082;28;20060;-56
2022/09/29 07:10:40;;;;;;;17.63;13.20;;;;;;;;;;5068535;28;20040;-56
2022/09/29 07:13:07;;;;;;;15.48;13.40;;;6.90;99.90;;;;;;5068139;28;20062;-56
2022/09/29 07:15:33;;;;;;;15.43;13.82;;;7.20;99.90;;;;;;5068022;28;20977;-56
2022/09/29 07:18:00;;;;;;;16.95;13.50;;;7.60;99.90;;;;;;5070699;28;21133;-56
2022/09/29 07:20:27;;;;;;;17.27;12.88;;;7.60;99.90;;;;;;5069162;28;20072;-55
2022/09/29 07:22:54;;;;;;;13.18;11.73;;;8.10;99.90;;;;;;5068190;28;20051;-57
2022/09/29 07:25:20;;;;;;;12.23;10.93;;;7.90;99.90;;;;;;5070388;28;20028;-56
2022/09/29 07:27:47;;;;;;;14.38;10.02;;;8.20;99.90;;;;;;5069633;28;20047;-56
2022/09/29 07:30:13;;;;;;;13.20;10.30;;;8.60;99.90;;;;;;5070869;28;20044;-57
2022/09/29 07:32:39;;;;;;;11.77;8.95;;;10.50;99.90;;;;;;5068754;28;20735;-56
2022/09/29 07:35:06;;;;;;;14.30;9.40;;;10.00;99.90;;;;;;5069708;28;20031;-56
2022/09/29 07:37:31;;;;;;;13.10;9.35;;;10.90;99.90;;;;;;5072003;28;20055;-57
2022/09/29 07:39:57;;;;;;;12.20;9.63;;;11.30;99.40;;;;;;5071199;28;20047;-57
2022/09/29 07:42:23;;;;;;;10.63;9.23;;;12.30;92.20;;;;;;5069852;28;20400;-57
2022/09/29 07:44:49;;;;;;;10.32;8.95;;;12.40;76.10;;;;;;5071192;28;20073;-56
2022/09/29 07:47:15;;;;;;;10.43;9.23;;;12.80;73.80;;;;;;5070680;28;20048;-56
2022/09/29 07:49:41;;;;;;;13.25;10.00;;;12.80;51.90;;;;;;5070743;28;20615;-57
2022/09/29 07:52:07;;;;;;;15.15;10.30;;;12.60;65.60;;;;;;5069390;28;20043;-57
2022/09/29 07:54:33;;;;;;;11.77;10.30;;;12.10;59.50;;;;;;5070065;28;20032;-57
2022/09/29 07:57:01;;;;;;;16.08;10.90;;;12.00;69.70;;;;;;5069301;28;21045;-56
2022/09/29 07:59:27;;;;;;;13.52;11.15;;;11.40;76.80;;;;;;5071195;28;20519;-57
2022/09/29 08:01:53;;;;;;;12.77;11.35;;;11.00;88.10;;;;;;5069376;28;20123;-57
2022/09/29 08:04:18;;;;;;;13.98;11.65;;;10.90;93.50;;;;;;5069862;28;20323;-56
2022/09/29 08:06:45;;;;;;;13.77;12.23;;;10.70;96.50;;;;;;5070411;28;20032;-55
2022/09/29 08:09:11;;;;;;;15.15;10.60;;;10.70;99.20;;;;;;5071076;28;20059;-57
2022/09/29 08:11:38;;;;;;;11.50;9.52;;;10.60;99.90;;;;;;5069152;28;20119;-56
2022/09/29 08:14:04;;;;;;;19.77;13.85;;;10.50;99.90;;;;;;5068476;28;20645;-57
2022/09/29 08:16:31;;;;;;;16.73;13.40;;;10.60;99.90;;;;;;5068800;28;20040;-56
2022/09/29 08:18:58;;;;;;;12.43;9.75;;;11.70;99.90;;;;;;5069917;28;20047;-57
2022/09/29 08:21:24;;;;;;;20.58;14.02;;;10.60;99.90;;;;;;5067957;28;20044;-56
2022/09/29 08:23:50;;;;;;;19.10;14.48;;;10.50;99.90;;;;;;5068606;28;20367;-56
2022/09/29 08:26:18;;;;;;;17.70;13.82;;;10.50;99.90;;;;;;5069805;28;20488;-56
2022/09/29 08:28:44;;;;;;;16.83;12.95;;;10.80;99.90;;;;;;5068823;28;20105;-57
2022/09/29 08:31:13;;;;;;;15.10;12.48;;;11.10;99.90;;;;;;5069622;28;20409;-57
2022/09/29 08:33:39;;;;;;;19.67;14.85;;;11.20;99.90;;;;;;5069619;28;20050;-56
2022/09/29 08:36:13;;;;;;;17.45;14.80;;;10.90;99.90;;;;;;5068906;28;20037;-56
2022/09/29 08:38:43;;;;;;;16.83;12.23;;;11.00;99.90;;;;;;5069524;28;20527;-56
2022/09/29 08:41:28;;;;;;;19.27;13.25;;;11.10;99.90;;;;;;5069940;28;20047;-57
2022/09/29 08:44:11;;;;;;;12.95;10.27;;;13.20;99.90;;;;;;5068931;28;20074;-56
2022/09/29 08:46:41;;;;;;;15.98;12.18;;;11.20;99.90;;;;;;5070847;28;20040;-57
2022/09/29 08:49:18;;;;;;;17.30;11.93;;;11.90;99.90;;;;;;5068108;28;20590;-56
2022/09/29 08:51:49;;;;;;;19.73;12.52;;;11.30;99.90;;;;;;5068952;28;20040;-57
2022/09/29 08:54:36;;;;;;;16.52;10.60;;;11.40;99.90;;;;;;5070092;28;20075;-57
2022/09/29 08:57:04;;;;;;;14.52;10.38;;;11.40;99.90;;;;;;5068756;28;20089;-56
2022/09/29 08:59:30;;;;;;;13.45;9.40;;;11.40;99.90;;;;;;5069590;28;20039;-55
2022/09/29 09:02:25;;;;;;;15.77;12.00;;;11.10;99.90;;;;;;5069722;28;20048;-56
2022/09/29 09:05:04;;;;;;;14.05;10.88;;;11.70;99.90;;;;;;5065472;28;20092;-56
2022/09/29 09:07:57;;;;;;;16.70;12.15;;;11.60;99.90;;;;;;5073496;28;20089;-56
2022/09/29 09:10:46;;;;;;;13.73;10.80;;;11.50;99.90;;;;;;5072246;28;20058;-57
2022/09/29 09:13:28;;;;;;;12.80;8.98;;;13.70;99.90;;;;;;5073283;28;20747;-56
2022/09/29 09:16:01;;;;;;;11.52;8.35;;;11.60;99.90;;;;;;5073202;28;20064;-56
2022/09/29 09:18:37;;;;;;;11.75;9.20;;;11.70;99.90;;;;;;5072537;28;20416;-57
2022/09/29 09:21:35;;;;;;;9.32;7.70;;;11.90;99.90;;;;;;5071701;28;20075;-57
2022/09/29 09:24:43;;;;;;;12.48;7.75;;;12.40;97.50;;;;;;5073822;28;20086;-57
2022/09/29 09:27:18;;;;;;;9.00;6.53;;;12.60;90.00;;;;;;5073342;28;20047;-57
2022/09/29 09:29:48;;;;;;;9.82;7.70;;;12.70;84.70;;;;;;5073189;28;20062;-56
2022/09/29 09:32:26;;;;;;;9.40;6.45;;;12.80;84.30;;;;;;5073789;28;20047;-57
2022/09/29 09:35:07;;;;;;;9.85;7.18;;;12.00;84.70;;;;;;5071679;28;20132;-57
2022/09/29 09:37:42;;;;;;;9.38;6.10;;;13.10;74.90;;;;;;5072503;28;20064;-57
2022/09/29 09:40:23;;;;;;;8.77;5.63;;;13.20;71.90;;;;;;5071930;28;20064;-56
2022/09/29 09:42:57;;;;;;;8.38;5.18;;;13.10;60.70;;;;;;5073698;28;20047;-57
2022/09/29 09:45:30;;;;;;;7.43;5.38;;;14.90;67.70;;;;;;5071595;28;20040;-57
2022/09/29 09:48:07;;;;;;;7.72;5.05;;;12.80;69.10;;;;;;5069443;28;20052;-57
2022/09/29 09:50:38;;;;;;;7.82;5.05;;;13.30;71.30;;;;;;5070034;28;20052;-57
2022/09/29 09:53:13;;;;;;;8.27;5.35;;;13.10;64.30;;;;;;5070414;28;20051;-57
2022/09/29 09:55:39;;;;;;;8.57;5.35;;;13.00;56.90;;;;;;5072853;28;20490;-56
2022/09/29 09:58:17;;;;;;;7.00;5.30;;;13.20;57.60;;;;;;5070438;28;20076;-57
2022/09/29 10:00:54;;;;;;;7.15;5.07;;;13.20;58.50;;;;;;5072324;28;20108;-56
2022/09/29 10:03:20;;;;;;;7.22;4.72;;;13.40;52.80;;;;;;5071655;28;20101;-56
2022/09/29 10:05:47;;;;;;;7.18;4.43;;;15.30;53.60;;;;;;5071902;28;20040;-57
2022/09/29 10:08:25;;;;;;;8.25;4.20;;;13.60;42.30;;;;;;5071887;28;20036;-57
2022/09/29 10:10:52;;;;;;;6.82;3.80;;;13.40;36.00;;;;;;5072354;28;20101;-57
2022/09/29 10:13:19;;;;;;;5.53;3.40;;;13.60;27.70;;;;;;5071439;28;20047;-57
2022/09/29 10:16:11;;;;;;;7.22;3.85;;;13.80;8.60;;;;;;5069237;28;20044;-57
2022/09/29 10:18:44;;;;;;;7.78;3.60;;;13.70;1.00;;;;;;5071761;28;20407;-57
2022/09/29 10:21:37;;;;;;;5.03;3.03;;;15.40;4.40;;;;;;5071453;28;20055;-57
2022/09/29 10:24:06;;;;;;;6.13;3.40;;;14.20;3.60;;;;;;5070195;28;20450;-57
2022/09/29 10:26:35;;;;;;;4.78;2.80;;;14.50;8.90;;;;;;5073485;28;20453;-58
2022/09/29 10:29:22;;;;;;;7.10;3.17;;;14.70;1.00;;;;;;5071947;28;20124;-58
2022/09/29 10:32:13;;;;;;;5.63;3.40;;;14.70;1.00;;;;;;5070785;28;20050;-57
2022/09/29 10:34:45;;;;;;;5.22;3.05;;;15.20;1.00;;;;;;5071815;28;20055;-57
2022/09/29 10:37:34;;;;;;;5.45;2.45;;;15.00;1.00;;;;;;5071584;28;20068;-57
2022/09/29 10:40:11;;;;;;;4.60;2.25;;;15.30;1.00;;;;;;5071500;28;20079;-57
2022/09/29 10:42:38;;;;;;;6.07;2.53;;;15.40;1.00;;;;;;5071194;28;20040;-57
2022/09/29 10:45:12;;;;;;;5.50;2.45;;;15.30;1.00;;;;;;5070295;28;21236;-58
2022/09/29 10:47:39;;;;;;;4.32;2.20;;;15.50;1.00;;;;;;5069106;28;20535;-57
2022/09/29 10:50:14;;;;;;;3.90;2.17;;;15.50;1.00;;;;;;5068422;28;20206;-57
2022/09/29 10:52:57;;;;;;;6.22;1.92;;;15.70;1.00;;;;;;5070323;28;20539;-56
2022/09/29 10:55:27;;;;;;;4.22;2.15;;;15.90;1.00;;;;;;5071755;28;20401;-57
2022/09/29 10:57:58;;;;;;;3.70;2.00;;;15.90;1.00;;;;;;5069005;28;20035;-58
2022/09/29 11:00:39;;;;;;;3.40;1.92;;;16.20;1.00;;;;;;5070033;28;20113;-57
2022/09/29 11:03:15;;;;;;;3.25;2.00;;;16.30;1.00;;;;;;5069909;28;20205;-57
2022/09/29 11:06:04;;;;;;;3.95;1.80;;;16.30;1.00;;;;;;5068534;28;20040;-57
2022/09/29 11:08:30;;;;;;;4.25;2.05;;;16.20;99.90;;;;;;5069243;28;20677;-57
2022/09/29 11:11:22;;;;;;;3.13;1.60;;;16.50;99.90;;;;;;5070579;28;22159;-58
2022/09/29 11:13:49;;;;;;;1.88;0.95;;;16.70;99.90;;;;;;5070403;28;20527;-57
2022/09/29 11:16:26;;;;;;;2.72;1.27;;;16.70;99.90;;;;;;5053114;28;20065;-58
2022/09/29 11:18:57;;;;;;;2.75;1.40;;;16.80;99.90;;;;;;5069716;28;20362;-57
2022/09/29 11:21:41;;;;;;;3.55;2.15;;;16.60;99.90;;;;;;5069387;28;20039;-57
2022/09/29 11:24:13;;;;;;;3.97;1.70;;;16.20;99.90;;;;;;5069072;28;20040;-58
2022/09/29 11:27:26;;;;;;;4.35;2.35;;;14.00;99.90;;;;;;5068954;28;20066;-57
2022/09/29 11:30:06;;;;;;;4.68;2.33;;;15.70;99.90;;;;;;5022921;28;20109;-58
2022/09/29 11:33:04;;;;;;;4.25;2.08;;;17.40;99.90;;;;;;5069894;28;20114;-57
2022/09/29 11:35:41;;;;;;;6.40;2.53;;;15.10;99.90;;;;;;5069471;28;20071;-57
2022/09/29 11:38:32;;;;;;;5.03;2.20;;;15.20;99.90;;;;;;5069063;28;20132;-57
2022/09/29 11:41:46;;;;;;;4.80;1.73;;;15.40;99.90;;;;;;5069494;28;20048;-58
2022/09/29 11:44:46;;;;;;;66.03;13.65;;;15.70;99.90;;;;;;5066037;28;20113;-57
2022/09/29 11:47:31;;;;;;;5.80;1.90;;;16.10;99.90;;;;;;5068299;28;20044;-58
2022/09/29 11:50:12;;;;;;;9.23;2.60;;;16.30;99.90;;;;;;5069083;28;20059;-58
2022/09/29 11:53:04;;;;;;;3.47;1.43;;;16.40;99.90;;;;;;5070164;28;20044;-58
2022/09/29 11:55:42;;;;;;;29.45;8.10;;;16.40;1.00;;;;;;5069630;28;20412;-57
2022/09/29 11:58:22;;;;;;;5.35;1.98;;;16.50;64.70;;;;;;5067962;28;20054;-58
2022/09/29 12:01:19;;;;;;;4.60;1.75;;;16.60;1.00;;;;;;5069162;28;20040;-57
2022/09/29 12:04:14;;;;;;;4.70;1.65;;;16.80;1.00;;;;;;5070441;28;20040;-58
2022/09/29 12:06:58;;;;;;;3.17;1.40;;;16.80;1.00;;;;;;5068546;28;20040;-58
2022/09/29 12:09:36;;;;;;;4.30;1.50;;;17.10;99.90;;;;;;5069132;28;20039;-57
2022/09/29 12:12:15;;;;;;;6.78;1.35;;;17.00;99.90;;;;;;5067438;28;20044;-57
2022/09/29 12:15:06;;;;;;;3.08;1.08;;;16.90;1.00;;;;;;5068524;28;20055;-58
2022/09/29 12:17:37;;;;;;;2.33;0.90;;;16.50;99.90;;;;;;5068993;28;20095;-58
2022/09/29 12:20:23;;;;;;;1.63;0.60;;;16.10;99.90;;;;;;5068317;28;20039;-59
2022/09/29 12:22:51;;;;;;;1.20;0.55;;;16.00;99.90;;;;;;5068409;28;20044;-57
2022/09/29 12:25:23;;;;;;;3.13;0.75;;;15.90;12.30;;;;;;5068775;28;20932;-57
2022/09/29 12:27:53;;;;;;;5.15;1.13;;;15.70;99.90;;;;;;5069573;28;20880;-56
2022/09/29 12:31:03;;;;;;;3.58;1.08;;;15.50;99.90;;;;;;5068804;28;20052;-57
2022/09/29 12:33:48;;;;;;;2.72;1.10;;;15.70;99.90;;;;;;5058034;28;20064;-57
2022/09/29 12:36:44;;;;;;;0.93;0.55;;;15.60;99.90;;;;;;5065678;28;20098;-57
2022/09/29 12:39:19;;;;;;;3.55;0.88;;;15.40;1.00;;;;;;5071787;28;20396;-58
2022/09/29 12:41:52;;;;;;;2.05;0.70;;;15.20;99.90;;;;;;5070904;28;20040;-56
2022/09/29 12:44:29;;;;;;;5.10;1.02;;;15.00;25.70;;;;;;5072977;28;20040;-55
2022/09/29 12:47:07;;;;;;;2.05;0.68;;;14.90;99.90;;;;;;5071001;28;20260;-57
2022/09/29 12:49:58;;;;;;;3.03;0.88;;;14.90;99.90;;;;;;5070725;28;20048;-56
2022/09/29 12:52:30;;;;;;;3.37;1.00;;;15.50;99.90;;;;;;5053202;28;20090;-56
2022/09/29 12:55:00;;;;;;;2.00;0.70;;;14.70;99.90;;;;;;5072727;28;20749;-57
2022/09/29 12:57:38;;;;;;;4.75;1.88;;;14.60;99.90;;;;;;5074262;28;20502;-57
2022/09/29 13:00:14;;;;;;;1.75;0.88;;;14.50;99.90;;;;;;5072690;28;20048;-57
2022/09/29 13:03:01;;;;;;;4.05;2.05;;;14.40;99.90;;;;;;5073786;28;20712;-57
2022/09/29 13:05:45;;;;;;;4.47;1.60;;;14.40;99.90;;;;;;5073429;28;20032;-57
2022/09/29 13:08:39;;;;;;;7.22;1.75;;;15.10;1.00;;;;;;5073571;28;20665;-57
2022/09/29 13:11:38;;;;;;;2.13;0.80;;;14.30;99.90;;;;;;5071795;28;20120;-56
2022/09/29 13:14:24;;;;;;;8.88;2.53;;;14.20;1.00;;;;;;5073683;28;20044;-56
2022/09/29 13:17:07;;;;;;;3.42;1.10;;;13.90;1.00;;;;;;5073646;28;20059;-58
2022/09/29 13:19:48;;;;;;;4.68;1.20;;;15.70;1.00;;;;;;5073459;28;20047;-56
2022/09/29 13:22:40;;;;;;;4.40;0.80;;;13.80;1.00;;;;;;5073240;28;20512;-57
2022/09/29 13:25:34;;;;;;;7.07;1.30;;;13.80;1.00;;;;;;5074266;28;20096;-57
2022/09/29 13:28:00;;;;;;;8.55;2.45;;;13.60;1.00;;;;;;5071758;28;20048;-57
2022/09/29 13:30:35;;;;;;;11.90;4.88;;;13.60;1.00;;;;;;5071180;28;20040;-57
2022/09/29 13:33:07;;;;;;;31.17;5.60;;;13.50;1.00;;;;;;5070598;28;20044;-57
2022/09/29 13:35:42;;;;;;;27.88;6.00;;;13.60;1.00;;;;;;5071641;28;20264;-57
2022/09/29 13:38:18;;;;;;;26.63;4.93;;;13.60;1.00;;;;;;5071545;28;20071;-57